createdAt,value
2017-10-02T00:01:07.058Z,7.15
2017-10-02T00:03:34.977Z,6.30
2017-10-02T00:06:03.787Z,8.70
2017-10-02T00:08:31.752Z,6.40
2017-10-02T00:10:59.801Z,7.55
2017-10-02T00:13:28.488Z,6.65
2017-10-02T00:15:56.518Z,10.18
2017-10-02T00:18:24.466Z,8.48
2017-10-02T00:20:53.193Z,6.55
2017-10-02T00:23:21.105Z,6.78
2017-10-02T00:25:49.125Z,3.42
2017-10-02T00:28:18.144Z,5.85
2017-10-02T00:30:46.146Z,3.35
2017-10-02T00:33:14.157Z,7.10
2017-10-02T00:35:42.218Z,5.43
2017-10-02T00:38:10.165Z,5.65
2017-10-02T00:40:38.174Z,8.30
2017-10-02T00:43:06.228Z,6.45
2017-10-02T00:45:34.255Z,2.70
2017-10-02T00:48:03.042Z,4.40
2017-10-02T00:50:31.052Z,5.62
2017-10-02T00:52:59.157Z,5.87
2017-10-02T00:55:27.117Z,6.75
2017-10-02T00:57:58.757Z,4.53
2017-10-02T01:00:26.715Z,4.12
2017-10-02T01:02:54.766Z,6.43
2017-10-02T01:05:22.751Z,5.35
2017-10-02T01:07:50.873Z,4.78
2017-10-02T01:10:18.839Z,3.50
2017-10-02T01:12:46.924Z,7.25
2017-10-02T01:15:14.861Z,11.57
2017-10-02T01:17:42.879Z,6.05
2017-10-02T01:20:10.849Z,10.50
2017-10-02T01:22:38.896Z,9.68
2017-10-02T01:25:06.887Z,9.38
2017-10-02T01:27:34.988Z,7.43
2017-10-02T01:30:02.961Z,6.47
2017-10-02T01:32:30.972Z,4.60
2017-10-02T01:34:58.935Z,8.95
2017-10-02T01:37:26.939Z,4.10
2017-10-02T01:39:54.883Z,5.62
2017-10-02T01:42:22.884Z,7.28
2017-10-02T01:44:50.844Z,6.40
2017-10-02T01:47:18.879Z,5.47
2017-10-02T01:49:46.893Z,5.25
2017-10-02T01:52:14.838Z,3.47
2017-10-02T01:54:42.833Z,3.37
2017-10-02T01:57:10.890Z,6.37
2017-10-02T01:59:38.936Z,6.50
2017-10-02T02:02:06.914Z,6.30
2017-10-02T02:04:34.992Z,4.90
2017-10-02T02:07:02.951Z,7.22
2017-10-02T02:09:30.933Z,6.12
2017-10-02T02:11:58.945Z,3.60
2017-10-02T02:14:26.994Z,3.97
2017-10-02T02:16:55.025Z,10.25
2017-10-02T02:19:23.069Z,9.30
2017-10-02T02:21:51.038Z,10.65
2017-10-02T02:24:19.090Z,7.78
2017-10-02T02:26:47.144Z,8.00
2017-10-02T02:29:15.153Z,3.08
2017-10-02T02:31:43.879Z,3.05
2017-10-02T02:34:11.953Z,4.12
2017-10-02T02:36:39.919Z,5.40
2017-10-02T02:39:08.017Z,7.60
2017-10-02T02:41:35.952Z,6.12
2017-10-02T02:44:03.959Z,3.75
2017-10-02T02:46:31.898Z,5.87
2017-10-02T02:48:59.929Z,4.45
2017-10-02T02:51:28.756Z,6.28
2017-10-02T02:53:56.727Z,4.78
2017-10-02T02:56:24.788Z,2.90
2017-10-02T02:58:52.719Z,3.97
2017-10-02T03:01:21.544Z,5.93
2017-10-02T03:03:49.507Z,9.30
2017-10-02T03:06:17.504Z,5.93
2017-10-02T03:08:45.566Z,4.43
2017-10-02T03:11:13.606Z,5.43
2017-10-02T03:13:42.353Z,5.00
2017-10-02T03:16:10.395Z,2.70
2017-10-02T03:18:38.512Z,2.58
2017-10-02T03:21:06.578Z,7.75
2017-10-02T03:23:34.565Z,5.25
2017-10-02T03:26:02.574Z,4.37
2017-10-02T03:28:30.567Z,6.32
2017-10-02T03:30:58.613Z,8.70
2017-10-02T03:33:26.625Z,6.95
2017-10-02T03:35:54.656Z,4.32
2017-10-02T03:38:22.610Z,4.70
2017-10-02T03:40:50.633Z,8.23
2017-10-02T03:43:18.606Z,12.82
2017-10-02T03:45:46.638Z,3.25
2017-10-02T03:48:14.779Z,5.72
2017-10-02T03:50:42.808Z,4.53
2017-10-02T03:53:10.763Z,7.28
2017-10-02T03:55:38.741Z,4.60
2017-10-02T03:58:06.862Z,2.47
2017-10-02T04:00:34.843Z,3.03
2017-10-02T04:03:02.882Z,9.55
2017-10-02T04:05:30.830Z,4.95
2017-10-02T04:07:58.859Z,8.50
2017-10-02T04:10:26.893Z,5.82
2017-10-02T04:12:54.922Z,4.62
2017-10-02T04:15:22.918Z,3.33
2017-10-02T04:17:51.125Z,3.62
2017-10-02T04:20:19.138Z,4.90
2017-10-02T04:22:47.217Z,4.05
2017-10-02T04:25:15.257Z,5.10
2017-10-02T04:27:43.259Z,5.43
2017-10-02T04:30:11.242Z,4.78
2017-10-02T04:32:39.232Z,5.37
2017-10-02T04:35:07.203Z,4.32
2017-10-02T04:37:35.467Z,8.77
2017-10-02T04:40:03.464Z,4.00
2017-10-02T04:42:31.480Z,5.72
2017-10-02T04:45:00.228Z,6.60
2017-10-02T04:47:35.891Z,12.15
2017-10-02T04:50:03.856Z,5.80
2017-10-02T04:52:31.859Z,7.45
2017-10-02T04:54:59.791Z,3.70
2017-10-02T04:57:27.782Z,10.23
2017-10-02T04:59:55.699Z,3.92
2017-10-02T05:02:23.795Z,10.85
2017-10-02T05:04:51.742Z,4.78
2017-10-02T05:07:19.655Z,8.30
2017-10-02T05:09:47.647Z,10.20
2017-10-02T05:12:15.582Z,6.70
2017-10-02T05:14:43.594Z,4.37
2017-10-02T05:17:12.790Z,4.72
2017-10-02T05:19:40.814Z,6.68
2017-10-02T05:22:08.885Z,10.77
2017-10-02T05:24:36.993Z,5.07
2017-10-02T05:27:04.972Z,4.30
2017-10-02T05:29:33.009Z,6.35
2017-10-02T05:32:01.024Z,7.72
2017-10-02T05:34:29.100Z,7.65
2017-10-02T05:36:57.785Z,6.57
2017-10-02T05:39:25.823Z,9.55
2017-10-02T05:41:53.806Z,5.90
2017-10-02T05:44:21.969Z,7.20
2017-10-02T05:46:52.127Z,8.40
2017-10-02T05:49:20.190Z,6.07
2017-10-02T05:51:48.210Z,8.48
2017-10-02T05:54:16.238Z,4.00
2017-10-02T05:56:44.990Z,9.90
2017-10-02T05:59:12.991Z,5.07
2017-10-02T06:01:41.716Z,6.50
2017-10-02T06:04:09.748Z,5.05
2017-10-02T06:06:38.439Z,5.18
2017-10-02T06:09:07.190Z,7.87
2017-10-02T06:11:35.168Z,8.45
2017-10-02T06:14:03.204Z,5.10
2017-10-02T06:16:31.944Z,7.43
2017-10-02T06:19:00.737Z,4.97
2017-10-02T06:21:28.791Z,6.32
2017-10-02T06:23:56.739Z,6.10
2017-10-02T06:26:31.491Z,5.43
2017-10-02T06:29:05.159Z,6.25
2017-10-02T06:31:39.261Z,5.55
2017-10-02T06:34:14.019Z,8.10
2017-10-02T06:36:47.126Z,3.53
2017-10-02T06:39:19.478Z,7.03
2017-10-02T06:41:50.915Z,3.55
2017-10-02T06:44:23.679Z,3.40
2017-10-02T06:46:51.894Z,4.50
2017-10-02T06:49:19.871Z,5.78
2017-10-02T06:51:47.879Z,4.53
2017-10-02T06:54:15.850Z,3.65
2017-10-02T06:56:43.922Z,4.95
2017-10-02T06:59:11.877Z,4.47
2017-10-02T07:01:40.696Z,3.00
2017-10-02T07:04:08.662Z,4.43
2017-10-02T07:06:36.723Z,4.72
2017-10-02T07:09:04.772Z,3.08
2017-10-02T07:11:32.767Z,6.18
2017-10-02T07:14:00.750Z,4.37
2017-10-02T07:16:28.780Z,3.35
2017-10-02T07:18:57.013Z,4.47
2017-10-02T07:21:25.454Z,4.50
2017-10-02T07:23:54.300Z,6.00
2017-10-02T07:26:22.387Z,5.50
2017-10-02T07:28:50.458Z,4.10
2017-10-02T07:31:19.272Z,6.75
2017-10-02T07:33:47.291Z,5.20
2017-10-02T07:36:15.274Z,3.55
2017-10-02T07:38:43.259Z,3.58
2017-10-02T07:41:11.250Z,3.90
2017-10-02T07:43:39.290Z,3.97
2017-10-02T07:46:07.311Z,3.92
2017-10-02T07:48:35.383Z,7.37
2017-10-02T07:51:03.475Z,3.20
2017-10-02T07:53:32.441Z,2.90
2017-10-02T07:56:00.480Z,5.30
2017-10-02T07:58:35.153Z,4.90
2017-10-02T08:01:03.644Z,3.63
2017-10-02T08:03:33.281Z,6.60
2017-10-02T08:06:01.285Z,2.50
2017-10-02T08:08:29.423Z,3.83
2017-10-02T08:10:57.392Z,6.00
2017-10-02T08:13:25.468Z,2.40
2017-10-02T08:15:53.456Z,4.87
2017-10-02T08:18:23.052Z,2.75
2017-10-02T08:20:56.751Z,4.30
2017-10-02T08:23:25.517Z,2.27
2017-10-02T08:25:53.663Z,6.77
2017-10-02T08:28:22.971Z,5.00
2017-10-02T08:30:51.486Z,4.73
2017-10-02T08:33:19.880Z,5.90
2017-10-02T08:35:48.542Z,4.23
2017-10-02T08:38:17.475Z,5.43
2017-10-02T08:40:45.468Z,3.00
2017-10-02T08:43:15.588Z,3.77
2017-10-02T08:45:43.931Z,3.07
2017-10-02T08:48:11.942Z,3.77
2017-10-02T08:50:39.871Z,2.87
2017-10-02T08:53:07.880Z,3.27
2017-10-02T08:55:35.863Z,2.80
2017-10-02T08:58:04.007Z,2.60
2017-10-02T09:00:32.025Z,7.33
2017-10-02T09:03:00.788Z,3.93
2017-10-02T09:05:28.796Z,3.20
2017-10-02T09:07:57.507Z,3.27
2017-10-02T09:10:25.518Z,5.30
2017-10-02T09:12:53.556Z,4.07
2017-10-02T09:15:21.789Z,4.60
2017-10-02T09:17:49.792Z,2.67
2017-10-02T09:20:17.788Z,2.50
2017-10-02T09:22:45.696Z,3.50
2017-10-02T09:25:16.034Z,2.77
2017-10-02T09:27:44.755Z,3.63
2017-10-02T09:30:12.744Z,5.00
2017-10-02T09:32:40.684Z,2.23
2017-10-02T09:35:08.670Z,4.00
2017-10-02T09:37:37.377Z,3.70
2017-10-02T09:40:05.420Z,2.43
2017-10-02T09:42:33.350Z,3.13
2017-10-02T09:45:01.378Z,2.50
2017-10-02T09:47:29.488Z,2.50
2017-10-02T09:49:57.492Z,2.00
2017-10-02T09:52:30.853Z,2.83
2017-10-02T09:55:03.547Z,2.20
2017-10-02T09:57:31.484Z,4.33
2017-10-02T09:59:59.500Z,2.53
2017-10-02T10:02:27.439Z,2.43
2017-10-02T10:04:55.394Z,2.10
2017-10-02T10:07:23.569Z,1.83
2017-10-02T10:09:51.495Z,1.97
2017-10-02T10:12:20.112Z,3.07
2017-10-02T10:14:48.056Z,1.67
2017-10-02T10:17:16.085Z,3.60
2017-10-02T10:19:44.044Z,2.10
2017-10-02T10:22:12.098Z,2.10
2017-10-02T10:24:40.047Z,1.83
2017-10-02T10:27:08.037Z,2.40
2017-10-02T10:29:35.999Z,2.17
2017-10-02T10:32:04.541Z,1.83
2017-10-02T10:34:33.244Z,5.63
2017-10-02T10:37:01.460Z,3.50
2017-10-02T10:39:30.277Z,1.97
2017-10-02T10:41:58.333Z,1.87
2017-10-02T10:44:26.363Z,2.30
2017-10-02T10:46:54.410Z,6.80
2017-10-02T10:49:22.398Z,1.50
2017-10-02T10:51:50.408Z,5.20
2017-10-02T10:54:20.975Z,2.50
2017-10-02T10:56:50.317Z,2.53
2017-10-02T10:59:18.269Z,5.43
2017-10-02T11:01:46.384Z,3.30
2017-10-02T11:04:14.338Z,2.47
2017-10-02T11:06:42.423Z,2.97
2017-10-02T11:09:10.437Z,3.73
2017-10-02T11:11:39.064Z,1.30
2017-10-02T11:14:07.114Z,3.87
2017-10-02T11:16:35.080Z,1.37
2017-10-02T11:19:03.066Z,2.50
2017-10-02T11:21:31.062Z,1.10
2017-10-02T11:23:59.145Z,2.50
2017-10-02T11:26:28.521Z,3.87
2017-10-02T11:28:56.672Z,1.20
2017-10-02T11:31:25.105Z,3.73
2017-10-02T11:33:53.162Z,3.20
2017-10-02T11:36:21.955Z,1.33
2017-10-02T11:38:50.586Z,6.30
2017-10-02T11:41:18.611Z,1.87
2017-10-02T11:43:46.660Z,0.90
2017-10-02T11:46:14.700Z,1.00
2017-10-02T11:48:42.742Z,1.00
2017-10-02T11:51:10.785Z,3.90
2017-10-02T11:53:39.111Z,1.17
2017-10-02T11:56:07.119Z,1.47
2017-10-02T11:58:38.827Z,3.37
2017-10-02T12:01:07.654Z,1.00
2017-10-02T12:03:35.717Z,2.80
2017-10-02T12:06:03.807Z,2.80
2017-10-02T12:08:32.019Z,1.60
2017-10-02T12:11:00.323Z,1.90
2017-10-02T12:13:28.481Z,1.63
2017-10-02T12:15:56.526Z,1.00
2017-10-02T12:18:24.716Z,2.77
2017-10-02T12:20:52.871Z,0.90
2017-10-02T12:23:20.962Z,0.90
2017-10-02T12:25:49.081Z,1.73
2017-10-02T12:28:17.183Z,1.67
2017-10-02T12:30:45.262Z,1.67
2017-10-02T12:33:13.374Z,1.00
2017-10-02T12:35:41.437Z,2.30
2017-10-02T12:38:10.262Z,1.30
2017-10-02T12:40:39.135Z,8.53
2017-10-02T12:43:07.097Z,2.20
2017-10-02T12:45:35.179Z,0.80
2017-10-02T12:48:03.296Z,1.00
2017-10-02T12:50:31.412Z,2.60
2017-10-02T12:52:59.429Z,1.07
2017-10-02T12:55:27.525Z,1.93
2017-10-02T12:57:55.551Z,1.47
2017-10-02T13:00:23.787Z,0.90
2017-10-02T13:02:51.823Z,2.90
2017-10-02T13:05:19.900Z,2.60
2017-10-02T13:07:47.897Z,0.90
2017-10-02T13:10:15.917Z,1.60
2017-10-02T13:12:43.924Z,2.17
2017-10-02T13:15:11.997Z,1.13
2017-10-02T13:17:39.978Z,1.20
2017-10-02T13:20:08.032Z,1.00
2017-10-02T13:22:36.847Z,3.47
2017-10-02T13:25:04.814Z,3.00
2017-10-02T13:27:34.093Z,4.20
2017-10-02T13:30:02.054Z,3.13
2017-10-02T13:32:30.094Z,6.17
2017-10-02T13:34:58.070Z,3.33
2017-10-02T13:37:26.112Z,3.40
2017-10-02T13:39:54.101Z,3.83
2017-10-02T13:42:22.123Z,5.00
2017-10-02T13:44:50.121Z,5.60
2017-10-02T13:47:18.323Z,3.23
2017-10-02T13:49:46.300Z,3.23
2017-10-02T13:52:14.338Z,2.93
2017-10-02T13:54:42.280Z,4.60
2017-10-02T13:57:10.850Z,4.47
2017-10-02T13:59:44.210Z,5.50
2017-10-02T14:02:12.634Z,7.17
2017-10-02T14:04:41.411Z,4.40
2017-10-02T14:07:12.430Z,5.70
2017-10-02T14:09:40.451Z,9.63
2017-10-02T14:12:08.572Z,6.13
2017-10-02T14:14:36.542Z,10.07
2017-10-02T14:17:04.647Z,7.97
2017-10-02T14:19:32.624Z,8.37
2017-10-02T14:22:00.630Z,13.30
2017-10-02T14:24:28.649Z,6.80
2017-10-02T14:26:56.747Z,8.50
2017-10-02T14:29:24.710Z,10.13
2017-10-02T14:31:52.686Z,10.43
2017-10-02T14:34:20.723Z,11.10
2017-10-02T14:36:48.698Z,8.30
2017-10-02T14:39:16.699Z,6.20
2017-10-02T14:41:44.677Z,7.50
2017-10-02T14:44:12.703Z,8.17
2017-10-02T14:46:42.748Z,8.40
2017-10-02T14:49:10.786Z,8.63
2017-10-02T14:51:38.736Z,14.63
2017-10-02T14:54:06.832Z,14.53
2017-10-02T14:56:34.854Z,10.27
2017-10-02T14:59:09.603Z,8.23
2017-10-02T15:01:37.766Z,12.03
2017-10-02T15:04:05.955Z,6.77
2017-10-02T15:06:33.985Z,8.03
2017-10-02T15:09:03.772Z,10.97
2017-10-02T15:11:31.762Z,5.63
2017-10-02T15:13:59.831Z,11.07
2017-10-02T15:16:27.813Z,12.00
2017-10-02T15:18:55.909Z,9.13
2017-10-02T15:21:23.845Z,10.97
2017-10-02T15:23:51.882Z,10.60
2017-10-02T15:26:19.853Z,11.60
2017-10-02T15:28:47.977Z,11.53
2017-10-02T15:31:16.005Z,17.80
2017-10-02T15:33:44.819Z,11.33
2017-10-02T15:36:12.773Z,9.33
2017-10-02T15:38:40.838Z,10.77
2017-10-02T15:41:08.801Z,11.10
2017-10-02T15:43:36.882Z,8.70
2017-10-02T15:46:04.887Z,9.40
2017-10-02T15:48:32.924Z,14.63
2017-10-02T15:51:00.955Z,5.97
2017-10-02T15:53:28.934Z,14.13
2017-10-02T15:55:56.970Z,9.87
2017-10-02T15:58:25.663Z,7.03
2017-10-02T16:00:54.832Z,13.50
2017-10-02T16:03:23.547Z,11.90
2017-10-02T16:05:52.415Z,12.70
2017-10-02T16:08:20.703Z,8.13
2017-10-02T16:10:49.464Z,18.53
2017-10-02T16:13:17.507Z,8.30
2017-10-02T16:15:45.607Z,12.77
2017-10-02T16:18:13.728Z,10.73
2017-10-02T16:20:41.715Z,15.57
2017-10-02T16:23:09.650Z,10.20
2017-10-02T16:25:37.705Z,9.57
2017-10-02T16:28:07.039Z,10.50
2017-10-02T16:30:35.402Z,15.40
2017-10-02T16:33:03.345Z,13.17
2017-10-02T16:35:31.388Z,13.63
2017-10-02T16:37:59.310Z,15.43
2017-10-02T16:40:27.265Z,16.63
2017-10-02T16:42:55.201Z,10.70
2017-10-02T16:45:23.257Z,9.03
2017-10-02T16:47:51.376Z,12.03
2017-10-02T16:50:20.120Z,16.30
2017-10-02T16:52:50.535Z,14.57
2017-10-02T16:55:19.234Z,9.10
2017-10-02T16:57:51.063Z,11.87
2017-10-02T17:00:22.853Z,18.27
2017-10-02T17:02:51.147Z,16.03
2017-10-02T17:05:19.059Z,14.33
2017-10-02T17:07:47.072Z,20.17
2017-10-02T17:10:15.033Z,13.30
2017-10-02T17:12:43.053Z,12.77
2017-10-02T17:15:11.079Z,17.00
2017-10-02T17:17:43.035Z,13.23
2017-10-02T17:20:10.967Z,13.77
2017-10-02T17:22:38.963Z,19.00
2017-10-02T17:25:07.646Z,19.37
2017-10-02T17:27:35.627Z,18.93
2017-10-02T17:30:04.304Z,20.87
2017-10-02T17:32:33.040Z,14.27
2017-10-02T17:35:00.970Z,12.40
2017-10-02T17:37:29.681Z,9.80
2017-10-02T17:39:57.598Z,17.87
2017-10-02T17:42:25.572Z,15.47
2017-10-02T17:44:53.485Z,14.53
2017-10-02T17:47:21.573Z,18.87
2017-10-02T17:49:49.470Z,14.50
2017-10-02T17:52:17.582Z,11.80
2017-10-02T17:54:46.492Z,16.00
2017-10-02T17:57:14.464Z,16.47
2017-10-02T17:59:42.377Z,8.43
2017-10-02T18:02:10.348Z,13.33
2017-10-02T18:04:38.256Z,12.80
2017-10-02T18:07:07.360Z,11.20
2017-10-02T18:09:35.326Z,13.40
2017-10-02T18:12:03.242Z,10.80
2017-10-02T18:14:31.190Z,18.53
2017-10-02T18:16:59.951Z,10.70
2017-10-02T18:19:27.924Z,11.27
2017-10-02T18:21:55.883Z,20.53
2017-10-02T18:24:24.804Z,13.07
2017-10-02T18:26:52.711Z,14.53
2017-10-02T18:29:20.876Z,16.87
2017-10-02T18:31:48.805Z,18.00
2017-10-02T18:34:16.779Z,14.47
2017-10-02T18:36:44.770Z,15.30
2017-10-02T18:39:12.756Z,13.87
2017-10-02T18:41:40.720Z,17.60
2017-10-02T18:44:08.720Z,19.97
2017-10-02T18:46:36.649Z,17.13
2017-10-02T18:49:04.656Z,18.53
2017-10-02T18:51:32.570Z,12.93
2017-10-02T18:54:00.525Z,15.00
2017-10-02T18:56:28.442Z,18.03
2017-10-02T18:58:56.405Z,17.47
2017-10-02T19:01:24.315Z,15.17
2017-10-02T19:03:52.707Z,16.13
2017-10-02T19:06:21.400Z,19.63
2017-10-02T19:08:49.536Z,16.10
2017-10-02T19:11:17.447Z,19.53
2017-10-02T19:13:45.856Z,15.10
2017-10-02T19:16:13.850Z,16.43
2017-10-02T19:18:41.783Z,13.53
2017-10-02T19:21:09.841Z,12.70
2017-10-02T19:23:37.766Z,18.07
2017-10-02T19:26:05.721Z,17.77
2017-10-02T19:28:33.659Z,15.10
2017-10-02T19:31:01.618Z,13.50
2017-10-02T19:33:29.564Z,14.67
2017-10-02T19:35:57.537Z,14.03
2017-10-02T19:38:25.618Z,14.30
2017-10-02T19:40:54.363Z,17.10
2017-10-02T19:43:22.256Z,15.87
2017-10-02T19:45:50.212Z,26.67
2017-10-02T19:48:18.206Z,11.63
2017-10-02T19:50:46.932Z,12.07
2017-10-02T19:53:14.903Z,11.27
2017-10-02T19:55:42.863Z,16.20
2017-10-02T19:58:10.774Z,13.37
2017-10-02T20:00:38.699Z,17.40
2017-10-02T20:03:06.635Z,10.83
2017-10-02T20:05:34.609Z,13.10
2017-10-02T20:08:02.517Z,17.90
2017-10-02T20:10:30.477Z,18.10
2017-10-02T20:12:58.369Z,17.47
2017-10-02T20:15:26.375Z,20.53
2017-10-02T20:17:54.266Z,32.23
2017-10-02T20:20:22.281Z,15.27
2017-10-02T20:22:53.561Z,17.37
2017-10-02T20:25:21.579Z,29.07
2017-10-02T20:27:49.669Z,22.20
2017-10-02T20:30:17.837Z,17.17
2017-10-02T20:32:45.788Z,23.70
2017-10-02T20:35:13.676Z,19.13
2017-10-02T20:37:41.633Z,20.20
2017-10-02T20:40:09.558Z,18.83
2017-10-02T20:42:37.509Z,20.77
2017-10-02T20:45:05.412Z,19.67
2017-10-02T20:47:33.371Z,24.13
2017-10-02T20:50:01.277Z,26.47
2017-10-02T20:52:29.254Z,23.50
2017-10-02T20:54:57.186Z,29.23
2017-10-02T20:57:26.228Z,25.00
2017-10-02T20:59:54.561Z,23.83
2017-10-02T21:02:23.317Z,20.23
2017-10-02T21:04:51.274Z,21.77
2017-10-02T21:07:19.259Z,23.55
2017-10-02T21:09:47.199Z,29.00
2017-10-02T21:12:15.182Z,35.40
2017-10-02T21:14:43.140Z,22.15
2017-10-02T21:17:11.126Z,29.45
2017-10-02T21:19:39.057Z,20.75
2017-10-02T21:22:07.102Z,27.80
2017-10-02T21:24:35.090Z,27.27
2017-10-02T21:27:04.302Z,25.08
2017-10-02T21:29:32.297Z,29.98
2017-10-02T21:32:00.269Z,29.92
2017-10-02T21:34:28.279Z,28.50
2017-10-02T21:36:56.202Z,22.42
2017-10-02T21:39:24.236Z,30.70
2017-10-02T21:41:53.090Z,41.72
2017-10-02T21:44:21.083Z,24.95
2017-10-02T21:46:49.197Z,21.90
2017-10-02T21:49:17.172Z,23.25
2017-10-02T21:51:45.124Z,33.10
2017-10-02T21:54:13.159Z,23.12
2017-10-02T21:56:41.133Z,41.05
2017-10-02T21:59:09.118Z,21.40
2017-10-02T22:01:37.862Z,29.02
2017-10-02T22:04:05.843Z,27.35
2017-10-02T22:06:33.820Z,24.30
2017-10-02T22:09:01.882Z,18.90
2017-10-02T22:11:29.859Z,29.83
2017-10-02T22:13:57.911Z,30.35
2017-10-02T22:16:25.895Z,25.95
2017-10-02T22:18:54.090Z,34.38
2017-10-02T22:21:22.073Z,28.38
2017-10-02T22:23:50.116Z,28.25
2017-10-02T22:26:18.077Z,30.23
2017-10-02T22:28:47.099Z,17.70
2017-10-02T22:31:15.179Z,26.12
2017-10-02T22:33:43.199Z,27.93
2017-10-02T22:36:11.198Z,23.75
2017-10-02T22:38:39.146Z,25.80
2017-10-02T22:41:07.940Z,22.60
2017-10-02T22:43:36.071Z,23.38
2017-10-02T22:46:04.847Z,19.40
2017-10-02T22:48:34.285Z,26.35
2017-10-02T22:51:02.255Z,16.27
2017-10-02T22:53:30.190Z,21.65
2017-10-02T22:55:58.439Z,12.68
2017-10-02T22:58:26.366Z,24.77
2017-10-02T23:00:54.395Z,15.25
2017-10-02T23:03:22.476Z,19.30
2017-10-02T23:05:50.469Z,25.25
2017-10-02T23:08:22.856Z,19.73
2017-10-02T23:10:50.862Z,33.40
2017-10-02T23:13:18.795Z,27.98
2017-10-02T23:15:46.778Z,19.83
2017-10-02T23:18:14.712Z,18.80
2017-10-02T23:20:42.707Z,23.55
2017-10-02T23:23:10.618Z,26.73
2017-10-02T23:25:38.642Z,31.52
2017-10-02T23:28:06.550Z,21.35
2017-10-02T23:30:34.508Z,17.60
2017-10-02T23:33:02.441Z,17.00
2017-10-02T23:35:30.434Z,16.30
2017-10-02T23:37:58.528Z,22.52
2017-10-02T23:40:26.507Z,18.42
2017-10-02T23:42:54.463Z,19.08
2017-10-02T23:45:22.397Z,20.33
2017-10-02T23:47:51.129Z,24.85
2017-10-02T23:50:19.041Z,16.70
2017-10-02T23:52:47.032Z,17.48
2017-10-02T23:55:14.941Z,22.48
2017-10-02T23:57:42.914Z,14.43
